Time;durP1;ratioP1;P1;durP2;ratioP2;P2;SDS_P1;SDS_P2;PMS_P1;PMS_P2;Temp;Humidity;BMP_temperature;BMP_pressure;BME280_temperature;BME280_humidity;BME280_pressure;Samples;Min_cycle;Max_cycle;Signal;HPM_P1;HPM_P2
2022/01/06 00:01:04;;;;;;;4.45;1.50;;;;;;;5.35;54.60;97234.09;4474098;32;20861;-73
2022/01/06 00:03:33;;;;;;;3.67;1.20;;;;;;;5.46;55.22;97239.66;4474043;32;20089;-72
2022/01/06 00:06:06;;;;;;;3.35;1.48;;;;;;;4.54;57.83;97222.28;4474221;32;20104;-73
2022/01/06 00:08:35;;;;;;;2.95;1.35;;;;;;;5.16;55.68;97203.19;4474776;32;20119;-73
2022/01/06 00:11:03;;;;;;;2.45;1.17;;;;;;;5.21;55.05;97197.06;4473818;32;20112;-73
2022/01/06 00:13:44;;;;;;;5.20;1.17;;;;;;;4.50;58.10;97184.97;4488151;32;20127;-73
2022/01/06 00:16:24;;;;;;;3.75;1.20;;;;;;;4.59;57.24;97160.84;4488368;32;20123;-73
2022/01/06 00:24:20;;;;;;;4.47;1.33;;;;;;;5.18;54.85;97203.97;4475830;32;20410;-73
2022/01/06 00:26:51;;;;;;;8.15;1.67;;;;;;;5.13;54.86;97187.97;4488241;32;20386;-73
2022/01/06 00:29:18;;;;;;;4.40;1.58;;;;;;;5.10;53.75;97206.78;4488088;32;20130;-73
2022/01/06 00:31:46;;;;;;;6.57;1.40;;;;;;;5.72;52.44;97205.44;4487690;32;20465;-73
2022/01/06 00:34:13;;;;;;;4.90;1.40;;;;;;;5.83;52.77;97205.88;4488165;32;20107;-73
2022/01/06 00:36:41;;;;;;;6.15;1.48;;;;;;;6.25;51.24;97210.31;4488152;32;20446;-73
2022/01/06 00:39:09;;;;;;;5.10;1.50;;;;;;;5.84;51.97;97227.19;4487496;32;20115;-73
2022/01/06 00:41:37;;;;;;;4.53;1.20;;;;;;;6.27;51.03;97227.31;4488086;32;20104;-73
2022/01/06 00:44:05;;;;;;;7.20;1.23;;;;;;;5.20;54.09;97233.72;4488115;32;20529;-73
2022/01/06 00:46:32;;;;;;;5.20;1.40;;;;;;;5.05;54.42;97241.09;4473624;32;20096;-73
2022/01/06 00:48:59;;;;;;;5.78;1.77;;;;;;;6.18;51.33;97235.34;4487814;32;20164;-73
2022/01/06 00:51:26;;;;;;;3.70;1.35;;;;;;;6.19;52.19;97241.28;4487625;32;20175;-73
2022/01/06 00:53:53;;;;;;;8.10;1.55;;;;;;;5.13;54.16;97244.22;4487933;32;20147;-73
2022/01/06 00:56:20;;;;;;;6.20;1.40;;;;;;;5.61;52.92;97234.00;4487989;32;20085;-73
2022/01/06 00:58:48;;;;;;;1.48;0.90;;;;;;;5.96;52.54;97240.44;4487568;32;20152;-73
2022/01/06 01:01:15;;;;;;;2.37;1.48;;;;;;;5.37;54.01;97228.03;4473837;32;20104;-73
2022/01/06 01:03:43;;;;;;;2.33;1.10;;;;;;;4.92;55.93;97212.53;4487885;32;20426;-73
2022/01/06 01:06:10;;;;;;;3.90;1.33;;;;;;;4.94;55.96;97206.47;4487482;32;20080;-74
2022/01/06 01:08:38;;;;;;;2.78;1.10;;;;;;;5.18;54.73;97215.03;4473682;32;20156;-73
2022/01/06 01:11:06;;;;;;;2.90;1.33;;;;;;;4.50;56.85;97207.94;4473765;32;20164;-73
2022/01/06 01:13:37;;;;;;;4.80;1.42;;;;;;;5.36;54.43;97221.25;4487363;32;20088;-74
2022/01/06 01:16:20;;;;;;;4.82;1.10;;;;;;;4.92;56.17;97213.38;4487907;32;20099;-73
2022/01/06 01:18:49;;;;;;;4.97;1.23;;;;;;;4.85;56.63;97209.34;4473538;32;20116;-73
2022/01/06 01:21:18;;;;;;;4.07;1.17;;;;;;;4.62;57.73;97204.16;4487216;32;20168;-73
2022/01/06 01:23:46;;;;;;;4.75;1.50;;;;;;;5.15;55.85;97219.44;4487777;32;20084;-73
2022/01/06 01:26:13;;;;;;;3.78;1.45;;;;;;;5.08;55.97;97233.31;4473702;32;20088;-73
2022/01/06 01:28:45;;;;;;;5.85;1.62;;;;;;;5.73;53.54;97227.59;4487359;32;20108;-73
2022/01/06 01:33:45;;;;;;;4.45;0.98;;;;;;;5.09;55.51;97232.41;4487403;32;20111;-73
2022/01/06 01:36:12;;;;;;;3.53;1.30;;;;;;;4.76;55.66;97240.31;4487667;32;20141;-73
2022/01/06 01:38:40;;;;;;;4.18;1.40;;;;;;;5.40;55.04;97250.94;4473327;32;20139;-73
2022/01/06 01:41:07;;;;;;;5.05;1.27;;;;;;;5.42;55.12;97244.06;4487317;32;20210;-73
2022/01/06 01:43:35;;;;;;;4.25;1.60;;;;;;;5.49;53.94;97235.25;4473560;32;20163;-73
2022/01/06 01:46:10;;;;;;;3.85;1.50;;;;;;;5.21;55.06;97217.50;4473615;32;20103;-74
2022/01/06 01:48:40;;;;;;;4.30;1.58;;;;;;;4.87;56.20;97214.41;4487309;32;20105;-73
2022/01/06 01:51:08;;;;;;;2.87;0.90;;;;;;;5.33;55.71;97221.38;4487578;32;20225;-73
2022/01/06 01:53:36;;;;;;;2.90;1.20;;;;;;;5.43;54.76;97211.63;4487699;32;20089;-73
2022/01/06 01:56:10;;;;;;;5.87;1.98;;;;;;;5.06;55.14;97200.12;4487369;32;20145;-73
2022/01/06 01:58:38;;;;;;;5.43;1.50;;;;;;;4.93;56.66;97199.72;4473491;32;20108;-73
2022/01/06 02:01:05;;;;;;;6.35;1.40;;;;;;;4.65;56.85;97196.37;4473474;32;20176;-73
2022/01/06 02:03:32;;;;;;;3.97;1.40;;;;;;;5.05;56.15;97221.47;4473033;32;20085;-73
2022/01/06 02:05:59;;;;;;;5.07;1.35;;;;;;;5.87;53.71;97233.06;4486796;32;20190;-73
2022/01/06 02:08:26;;;;;;;5.97;1.80;;;;;;;5.44;53.71;97241.44;4487351;32;20511;-73
2022/01/06 02:10:53;;;;;;;3.30;1.33;;;;;;;5.87;53.30;97240.75;4487150;32;20533;-73
2022/01/06 02:13:27;;;;;;;6.35;1.60;;;;;;;5.19;54.64;97252.50;4487272;32;20185;-73
2022/01/06 02:16:00;;;;;;;4.03;1.27;;;;;;;5.25;55.24;97268.53;4487309;32;20119;-73
2022/01/06 02:18:28;;;;;;;4.95;1.20;;;;;;;5.16;54.90;97269.69;4487315;32;20114;-74
2022/01/06 02:20:56;;;;;;;4.50;1.40;;;;;;;5.47;54.24;97270.31;4487086;32;20168;-73
2022/01/06 02:23:23;;;;;;;5.35;1.75;;;;;;;5.02;55.33;97267.59;4486959;32;20483;-73
2022/01/06 02:25:50;;;;;;;4.43;1.50;;;;;;;5.59;53.89;97278.44;4487193;32;20085;-73
2022/01/06 02:28:22;;;;;;;3.58;1.55;;;;;;;6.29;52.05;97268.25;4487173;32;20180;-73
2022/01/06 02:30:51;;;;;;;5.05;1.42;;;;;;;5.52;53.82;97265.84;4486969;32;20083;-73
2022/01/06 02:33:19;;;;;;;3.80;1.70;;;;;;;6.44;51.37;97275.31;4487021;32;20101;-73
2022/01/06 02:35:47;;;;;;;5.12;2.08;;;;;;;5.71;53.46;97280.56;4487266;32;20107;-73
2022/01/06 02:38:15;;;;;;;2.65;1.25;;;;;;;6.09;51.59;97279.22;4472698;32;20506;-73
2022/01/06 02:40:42;;;;;;;4.15;1.42;;;;;;;6.05;52.36;97277.66;4473144;32;20167;-73
2022/01/06 02:43:09;;;;;;;3.05;1.52;;;;;;;6.10;52.42;97280.91;4472879;32;20100;-73
2022/01/06 02:45:36;;;;;;;3.95;1.60;;;;;;;5.80;53.22;97287.94;4472677;32;20115;-73
2022/01/06 02:48:09;;;;;;;5.80;1.52;;;;;;;6.59;51.05;97279.87;4487043;32;20136;-73
2022/01/06 02:50:41;;;;;;;4.00;1.27;;;;;;;6.20;52.06;97276.25;4487120;32;20110;-73
2022/01/06 02:53:09;;;;;;;4.78;1.55;;;;;;;6.54;51.26;97266.38;4472834;32;20160;-73
2022/01/06 02:55:39;;;;;;;4.97;1.67;;;;;;;5.92;52.79;97251.66;4487253;32;20510;-73
2022/01/06 02:58:06;;;;;;;4.65;1.50;;;;;;;6.15;52.84;97255.09;4486697;32;20151;-73
2022/01/06 03:00:35;;;;;;;4.30;1.45;;;;;;;5.57;54.53;97264.87;4487084;32;20102;-73
2022/01/06 03:03:02;;;;;;;4.40;1.62;;;;;;;5.40;54.83;97270.56;4486805;32;20149;-73
2022/01/06 03:05:29;;;;;;;4.28;1.67;;;;;;;5.74;54.56;97267.66;4486456;32;20153;-73
2022/01/06 03:07:56;;;;;;;4.70;1.50;;;;;;;5.55;54.48;97267.50;4486757;32;20115;-73
2022/01/06 03:10:23;;;;;;;5.50;1.65;;;;;;;5.61;54.53;97274.94;4486834;32;20096;-73
2022/01/06 03:12:50;;;;;;;6.57;1.95;;;;;;;5.16;55.81;97267.97;4472111;32;20112;-73
2022/01/06 03:15:19;;;;;;;4.62;1.65;;;;;;;5.33;55.91;97271.69;4486695;32;20089;-73
2022/01/06 03:17:51;;;;;;;3.20;1.23;;;;;;;5.22;56.26;97277.16;4486580;32;20502;-73
2022/01/06 03:20:19;;;;;;;4.15;1.65;;;;;;;5.41;55.18;97275.62;4473899;32;20091;-73
2022/01/06 03:22:47;;;;;;;3.58;1.67;;;;;;;5.21;56.21;97275.50;4488513;32;20135;-73
2022/01/06 03:25:15;;;;;;;3.85;1.50;;;;;;;5.08;56.63;97267.38;4488633;32;20113;-73
2022/01/06 03:27:42;;;;;;;8.38;1.70;;;;;;;5.29;56.19;97260.69;4488208;32;20108;-73
2022/01/06 03:30:12;;;;;;;5.62;1.67;;;;;;;5.05;56.82;97266.66;4488576;32;20460;-73
2022/01/06 03:32:39;;;;;;;4.57;1.37;;;;;;;5.13;56.71;97262.97;4488419;32;20089;-73
2022/01/06 03:35:07;;;;;;;5.05;1.58;;;;;;;5.09;56.67;97263.09;4488301;32;20076;-73
2022/01/06 03:37:34;;;;;;;6.55;1.80;;;;;;;5.27;56.67;97270.16;4488533;32;20152;-73
2022/01/06 03:40:04;;;;;;;4.32;1.70;;;;;;;5.34;56.49;97284.41;4488045;32;20091;-73
2022/01/06 03:42:32;;;;;;;7.53;1.73;;;;;;;4.85;57.08;97274.97;4474412;32;20092;-73
2022/01/06 03:45:00;;;;;;;7.32;1.90;;;;;;;5.00;56.65;97277.03;4488433;32;20092;-73
2022/01/06 03:47:27;;;;;;;4.78;1.52;;;;;;;5.03;56.80;97271.81;4488075;32;20093;-73
2022/01/06 03:49:54;;;;;;;3.30;1.40;;;;;;;4.74;58.16;97257.41;4488357;32;20116;-73
2022/01/06 03:52:21;;;;;;;;;;;;;;;5.28;56.69;97274.38;4488696;32;20092;-73
2022/01/06 03:54:48;;;;;;;5.20;1.70;;;;;;;4.61;57.76;97281.69;4488131;32;19971;-73
2022/01/06 03:57:15;;;;;;;5.37;1.30;;;;;;;5.34;56.22;97299.75;4474252;32;20114;-73
2022/01/06 03:59:41;;;;;;;4.35;1.70;;;;;;;5.62;54.97;97301.38;4488243;32;20600;-73
2022/01/06 04:02:08;;;;;;;8.60;1.52;;;;;;;4.92;57.18;97297.72;4488027;32;20407;-73
2022/01/06 04:04:36;;;;;;;5.72;1.70;;;;;;;4.95;57.92;97312.13;4474314;32;20084;-73
2022/01/06 04:07:04;;;;;;;5.50;1.60;;;;;;;5.21;57.14;97327.47;4488263;32;20146;-73
2022/01/06 04:09:31;;;;;;;5.28;1.30;;;;;;;5.46;55.75;97331.78;4487845;32;20100;-73
2022/01/06 04:11:58;;;;;;;4.40;1.70;;;;;;;6.04;54.08;97329.75;4488283;32;20790;-73
2022/01/06 04:14:25;;;;;;;;;;;;;;;5.51;55.43;97338.38;4488566;32;20080;-73
2022/01/06 04:16:58;;;;;;;6.72;1.70;;;;;;;5.70;54.53;97346.28;4488076;32;19991;-73
2022/01/06 04:19:25;;;;;;;3.42;1.40;;;;;;;5.98;54.12;97347.91;4487914;32;20228;-73
2022/01/06 04:21:53;;;;;;;4.12;1.40;;;;;;;5.62;54.95;97347.44;4487452;32;20148;-73
2022/01/06 04:24:20;;;;;;;4.43;1.52;;;;;;;5.33;55.81;97346.69;4472980;32;20102;-73
2022/01/06 04:26:47;;;;;;;3.83;1.62;;;;;;;5.90;54.40;97334.53;4487331;32;20131;-73
2022/01/06 04:29:14;;;;;;;3.20;1.45;;;;;;;5.03;56.37;97332.34;4486492;32;20168;-73
2022/01/06 04:31:41;;;;;;;4.18;1.50;;;;;;;5.22;56.67;97341.09;4473120;32;20108;-73
2022/01/06 04:34:08;;;;;;;4.62;1.30;;;;;;;5.40;56.21;97349.88;4487131;32;20430;-73
2022/01/06 04:36:35;;;;;;;4.18;1.50;;;;;;;5.30;56.38;97349.34;4486954;32;20520;-73
2022/01/06 04:39:02;;;;;;;3.58;1.27;;;;;;;5.28;56.12;97360.50;4487050;32;20164;-73
2022/01/06 04:41:29;;;;;;;5.28;1.30;;;;;;;5.73;54.84;97358.13;4460229;32;20163;-73
2022/01/06 04:43:56;;;;;;;4.40;1.62;;;;;;;5.52;55.42;97344.34;4486821;32;20159;-73
2022/01/06 04:46:24;;;;;;;5.22;1.40;;;;;;;5.67;55.42;97325.09;4487177;32;20116;-73
2022/01/06 04:48:51;;;;;;;5.70;1.55;;;;;;;5.78;55.11;97344.31;4486980;32;20104;-73
2022/01/06 04:51:17;;;;;;;;;;;;;;;5.62;55.59;97361.06;4487057;32;20092;-73
2022/01/06 04:53:44;;;;;;;4.43;1.17;;;;;;;5.36;56.14;97348.31;4486997;32;20371;-73
2022/01/06 04:56:14;;;;;;;5.05;1.42;;;;;;;5.81;54.89;97366.38;4487085;32;20080;-73
2022/01/06 04:58:41;;;;;;;5.35;1.60;;;;;;;5.33;56.08;97353.53;4472442;32;20169;-73
2022/01/06 05:01:08;;;;;;;4.70;1.70;;;;;;;6.14;53.91;97368.69;4486995;32;20136;-73
2022/01/06 05:03:35;;;;;;;5.95;1.62;;;;;;;6.40;52.94;97367.75;4472903;32;20176;-73
2022/01/06 05:06:02;;;;;;;5.93;1.80;;;;;;;6.37;53.18;97363.56;4472604;32;20104;-73
2022/01/06 05:08:29;;;;;;;3.28;1.52;;;;;;;6.22;52.92;97359.84;4486827;32;20130;-73
2022/01/06 05:10:56;;;;;;;5.32;1.52;;;;;;;5.48;55.28;97378.59;4486978;32;20468;-73
2022/01/06 05:13:23;;;;;;;3.10;1.37;;;;;;;6.16;54.08;97397.62;4486477;32;20110;-74
2022/01/06 05:15:51;;;;;;;5.53;1.42;;;;;;;5.94;54.49;97388.16;4486905;32;20167;-74
2022/01/06 05:18:18;;;;;;;4.82;1.23;;;;;;;6.27;53.28;97387.84;4486496;32;20163;-73
2022/01/06 05:20:45;;;;;;;5.78;1.55;;;;;;;5.76;55.07;97391.31;4467653;32;177231;-73
2022/01/06 05:23:13;;;;;;;3.45;1.15;;;;;;;5.91;54.45;97389.97;4487705;32;20494;-73
2022/01/06 05:25:40;;;;;;;4.65;1.45;;;;;;;5.88;54.86;97403.69;4487516;32;20437;-74
2022/01/06 05:28:07;;;;;;;1.83;1.17;;;;;;;6.55;53.44;97403.88;4487814;32;20163;-74
2022/01/06 05:30:34;;;;;;;5.47;1.40;;;;;;;6.05;53.78;97395.44;4487917;32;20145;-74
2022/01/06 05:33:01;;;;;;;3.78;1.10;;;;;;;6.39;53.67;97405.38;4487435;32;20088;-73
2022/01/06 05:35:28;;;;;;;7.18;1.50;;;;;;;6.23;53.96;97386.28;4473723;32;20219;-73
2022/01/06 05:37:55;;;;;;;3.55;1.40;;;;;;;5.93;54.52;97386.47;4487611;32;20547;-73
2022/01/06 05:40:22;;;;;;;4.90;1.50;;;;;;;5.35;57.21;97402.91;4486783;32;20088;-73
2022/01/06 05:42:49;;;;;;;4.40;1.60;;;;;;;5.73;55.76;97406.75;4487266;32;20097;-73
2022/01/06 05:45:17;;;;;;;4.70;1.40;;;;;;;6.00;54.59;97410.16;4487545;32;20096;-73
2022/01/06 05:47:44;;;;;;;5.72;1.50;;;;;;;6.19;54.13;97418.03;4487363;32;20136;-73
2022/01/06 05:50:11;;;;;;;;;;;;;;;5.96;54.81;97426.53;4487816;32;20166;-73
2022/01/06 05:52:38;;;;;;;7.43;1.60;;;;;;;5.91;54.94;97425.84;4473428;32;20277;-73
2022/01/06 05:55:05;;;;;;;3.47;1.10;;;;;;;5.90;55.47;97437.78;4487224;32;20147;-73
2022/01/06 05:57:32;;;;;;;4.50;1.30;;;;;;;6.37;53.55;97443.81;4473386;32;20116;-73
2022/01/06 05:59:59;;;;;;;4.47;1.30;;;;;;;6.01;54.95;97430.59;4487372;32;20130;-73
2022/01/06 06:02:26;;;;;;;6.37;1.60;;;;;;;6.45;53.89;97435.03;4487089;32;20156;-73
2022/01/06 06:04:53;;;;;;;6.00;2.20;;;;;;;5.92;54.78;97423.22;4487476;32;20101;-73
2022/01/06 06:07:20;;;;;;;;;;;;;;;6.23;54.44;97424.72;4487415;32;20118;-73
2022/01/06 06:09:47;;;;;;;3.10;1.27;;;;;;;5.70;55.41;97440.16;4487264;32;19986;-73
2022/01/06 06:12:14;;;;;;;6.40;1.50;;;;;;;5.68;55.95;97444.50;4487344;32;20159;-73
2022/01/06 06:14:42;;;;;;;4.82;1.23;;;;;;;5.27;57.99;97438.97;4487022;32;20557;-73
2022/01/06 06:17:09;;;;;;;4.37;1.52;;;;;;;5.54;56.97;97444.12;4487504;32;20092;-73
2022/01/06 06:19:36;;;;;;;5.47;1.40;;;;;;;5.75;56.27;97451.09;4472891;32;20102;-73
2022/01/06 06:22:03;;;;;;;4.97;1.67;;;;;;;5.66;56.26;97451.38;4487061;32;20124;-73
2022/01/06 06:24:30;;;;;;;3.75;1.23;;;;;;;5.65;56.43;97470.19;4487431;32;20092;-73
2022/01/06 06:26:58;;;;;;;5.82;1.50;;;;;;;6.21;54.80;97472.63;4487423;32;20507;-73
2022/01/06 06:29:25;;;;;;;6.50;1.58;;;;;;;5.87;55.50;97473.72;4486889;32;20143;-73
2022/01/06 06:31:52;;;;;;;3.12;1.40;;;;;;;5.65;56.44;97481.25;4487281;32;20141;-73
2022/01/06 06:34:19;;;;;;;9.25;1.60;;;;;;;5.91;55.89;97479.59;4487141;32;20089;-72
2022/01/06 06:36:46;;;;;;;5.53;1.20;;;;;;;5.95;55.92;97494.78;4486996;32;20160;-72
2022/01/06 06:39:13;;;;;;;6.75;1.70;;;;;;;5.87;56.30;97485.69;4487164;32;20391;-72
2022/01/06 06:41:40;;;;;;;5.47;1.40;;;;;;;5.63;56.81;97485.56;4487456;32;20627;-72
2022/01/06 06:44:07;;;;;;;4.37;1.40;;;;;;;6.18;54.95;97495.78;4486913;32;20724;-72
2022/01/06 06:46:34;;;;;;;5.47;1.50;;;;;;;6.05;54.74;97496.16;4487170;32;20092;-72
2022/01/06 06:49:01;;;;;;;6.28;1.70;;;;;;;6.53;54.19;97500.50;4486906;32;20107;-72
2022/01/06 06:51:28;;;;;;;4.65;1.48;;;;;;;6.70;54.04;97505.06;4486794;32;20110;-72
2022/01/06 06:53:55;;;;;;;5.28;1.55;;;;;;;6.46;54.68;97509.28;4472645;32;20503;-72
2022/01/06 06:56:22;;;;;;;6.28;1.40;;;;;;;6.68;53.47;97509.37;4486732;32;20099;-73
2022/01/06 06:58:49;;;;;;;;;;;;;;;5.57;57.13;97511.38;4486918;32;20092;-74
2022/01/06 07:01:16;;;;;;;7.40;1.55;;;;;;;6.34;55.05;97512.28;4487104;32;19968;-75
2022/01/06 07:03:43;;;;;;;6.22;1.83;;;;;;;5.53;57.56;97522.59;4472488;32;20157;-74
2022/01/06 07:06:10;;;;;;;4.87;1.50;;;;;;;6.42;54.30;97520.56;4486989;32;20106;-74
2022/01/06 07:08:37;;;;;;;6.80;1.95;;;;;;;6.48;54.43;97516.94;4486841;32;20097;-74
2022/01/06 07:11:04;;;;;;;4.43;1.70;;;;;;;5.96;55.90;97523.84;4472330;32;20167;-75
2022/01/06 07:13:31;;;;;;;4.90;1.80;;;;;;;6.68;54.31;97540.13;4486814;32;20148;-76
2022/01/06 07:15:57;;;;;;;;;;;;;;;6.55;54.23;97526.09;4487171;32;20356;-76
2022/01/06 07:18:24;;;;;;;6.70;1.98;;;;;;;6.65;54.29;97548.78;4488745;32;19987;-76
2022/01/06 07:20:51;;;;;;;6.07;1.70;;;;;;;6.53;54.58;97550.94;4487800;32;20080;-78
2022/01/06 07:23:18;;;;;;;;;;;;;;;6.80;53.71;97552.53;4486814;32;20128;-77
2022/01/06 07:25:45;;;;;;;3.65;1.55;;;;;;;6.41;54.38;97546.25;4486283;32;20360;-78
2022/01/06 07:28:12;;;;;;;4.87;1.40;;;;;;;6.38;54.98;97547.19;4485704;32;20114;-78
2022/01/06 07:30:39;;;;;;;4.30;1.60;;;;;;;6.12;55.62;97544.63;4486313;32;20156;-77
2022/01/06 07:33:06;;;;;;;5.55;1.60;;;;;;;6.90;53.92;97550.47;4485937;32;20152;-77
2022/01/06 07:35:33;;;;;;;3.78;1.62;;;;;;;6.73;54.31;97557.94;4486237;32;20143;-77
2022/01/06 07:38:00;;;;;;;4.70;1.42;;;;;;;6.64;53.86;97557.38;4486284;32;20404;-77
2022/01/06 07:40:27;;;;;;;3.22;1.55;;;;;;;6.92;53.64;97561.53;4485943;32;20129;-77
2022/01/06 07:42:54;;;;;;;;;;;;;;;6.36;55.35;97564.31;4486613;32;20132;-77
2022/01/06 07:45:21;;;;;;;6.80;1.60;;;;;;;7.17;53.13;97569.16;4486428;32;20004;-77
2022/01/06 07:48:00;;;;;;;3.37;1.40;;;;;;;6.93;53.89;97576.03;4485314;32;20183;-77
2022/01/06 07:50:32;;;;;;;4.45;1.73;;;;;;;7.40;51.84;97584.53;4486202;32;20160;-77
2022/01/06 07:53:00;;;;;;;4.10;1.80;;;;;;;7.55;51.92;97583.16;4485725;32;20092;-77
2022/01/06 07:55:27;;;;;;;10.43;2.75;;;;;;;7.42;52.29;97587.88;4485990;32;20092;-77
2022/01/06 07:57:55;;;;;;;7.15;1.95;;;;;;;7.19;53.07;97604.12;4486223;32;20435;-77
2022/01/06 08:00:22;;;;;;;6.43;2.05;;;;;;;6.56;53.81;97599.53;4485709;32;20148;-77
2022/01/06 08:02:49;;;;;;;9.13;1.85;;;;;;;6.48;55.45;97604.91;4488964;32;20135;-78
2022/01/06 08:05:19;;;;;;;7.07;2.33;;;;;;;6.93;53.42;97609.38;4488510;32;20560;-80
2022/01/06 08:07:46;;;;;;;6.97;1.77;;;;;;;6.37;55.61;97606.97;4486158;32;20460;-79
2022/01/06 08:10:13;;;;;;;5.30;1.60;;;;;;;6.28;56.21;97612.44;4486082;32;20134;-79
2022/01/06 08:12:41;;;;;;;6.90;2.05;;;;;;;6.42;55.90;97617.94;4486324;32;20104;-80
2022/01/06 08:15:08;;;;;;;9.50;2.60;;;;;;;6.81;54.89;97633.72;4473013;32;20119;-78
2022/01/06 08:17:36;;;;;;;7.25;2.30;;;;;;;6.77;55.06;97632.13;4486697;32;20163;-78
2022/01/06 08:20:08;;;;;;;9.48;3.28;;;;;;;6.96;54.77;97637.47;4485788;31;20085;-81
2022/01/06 08:22:36;;;;;;;7.72;2.55;;;;;;;6.81;55.14;97638.00;4487370;32;20447;-78
2022/01/06 08:25:04;;;;;;;9.93;2.65;;;;;;;6.59;55.09;97643.84;4474307;32;20108;-80
2022/01/06 08:27:31;;;;;;;8.20;1.98;;;;;;;7.31;54.05;97645.63;4488179;32;20481;-81
2022/01/06 08:29:58;;;;;;;8.27;2.65;;;;;;;7.25;53.33;97632.16;4473951;32;20102;-79
2022/01/06 08:32:25;;;;;;;8.05;2.50;;;;;;;8.00;51.42;97644.75;4488349;32;20349;-79
2022/01/06 08:34:52;;;;;;;;;;;;;;;7.87;51.37;97640.97;4461170;32;20122;-79
2022/01/06 08:37:19;;;;;;;5.30;1.70;;;;;;;7.48;52.27;97644.13;4488107;32;19980;-78
2022/01/06 08:39:46;;;;;;;7.95;2.10;;;;;;;7.79;51.40;97648.97;4488109;32;20485;-79
2022/01/06 08:42:13;;;;;;;6.65;1.87;;;;;;;8.16;51.13;97639.81;4488095;32;20155;-79
2022/01/06 08:44:41;;;;;;;4.60;1.70;;;;;;;8.44;50.40;97646.47;4488471;32;20140;-80
2022/01/06 08:47:09;;;;;;;7.72;2.28;;;;;;;7.35;52.18;97644.66;4488399;32;20156;-80
2022/01/06 08:49:37;;;;;;;4.82;1.35;;;;;;;7.62;52.41;97648.75;4488057;32;20120;-78
2022/01/06 08:52:05;;;;;;;5.87;1.85;;;;;;;8.20;50.45;97648.28;4474147;32;20104;-78
2022/01/06 08:54:32;;;;;;;6.50;2.17;;;;;;;7.93;51.22;97650.16;4488132;32;20578;-79
2022/01/06 08:56:59;;;;;;;7.78;2.08;;;;;;;7.60;51.49;97647.16;4487793;32;20163;-79
2022/01/06 08:59:26;;;;;;;5.15;1.70;;;;;;;7.26;52.46;97661.22;4473510;32;20117;-78
2022/01/06 09:01:53;;;;;;;4.05;1.80;;;;;;;8.05;50.68;97668.50;4487818;32;20477;-79
2022/01/06 09:04:21;;;;;;;6.43;1.90;;;;;;;8.29;50.48;97666.72;4488337;32;20089;-80
2022/01/06 09:06:49;;;;;;;6.20;1.95;;;;;;;8.69;49.23;97667.72;4474159;32;20107;-80
2022/01/06 09:09:17;;;;;;;7.30;1.80;;;;;;;8.67;48.59;97661.81;4488598;32;20100;-80
2022/01/06 09:11:44;;;;;;;4.87;1.77;;;;;;;8.36;49.57;97668.19;4488068;32;20109;-79
2022/01/06 09:14:11;;;;;;;5.93;1.95;;;;;;;8.34;49.20;97677.69;4489186;32;20096;-79
2022/01/06 09:16:40;;;;;;;4.22;1.70;;;;;;;8.31;49.37;97677.78;4486988;32;20080;-80
2022/01/06 09:19:07;;;;;;;5.70;1.73;;;;;;;8.03;50.80;97685.72;4487955;32;20106;-80
2022/01/06 09:21:34;;;;;;;6.22;1.92;;;;;;;7.82;51.37;97683.97;4487448;32;20171;-77
2022/01/06 09:24:04;;;;;;;5.10;1.60;;;;;;;9.44;47.62;97680.78;4487465;32;20106;-78
2022/01/06 09:26:31;;;;;;;5.87;2.10;;;;;;;8.59;49.38;97679.28;4474027;32;20104;-77
2022/01/06 09:28:59;;;;;;;6.87;2.03;;;;;;;9.59;46.90;97683.63;4487647;32;20080;-77
2022/01/06 09:31:26;;;;;;;4.68;1.90;;;;;;;9.44;46.99;97685.13;4484261;32;20135;-77
2022/01/06 09:33:54;;;;;;;4.72;1.55;;;;;;;8.79;47.79;97681.88;4485628;32;20383;-77
2022/01/06 09:36:20;;;;;;;6.95;1.50;;;;;;;8.89;48.17;97684.91;4486789;32;20104;-78
2022/01/06 09:38:48;;;;;;;5.62;1.50;;;;;;;9.22;46.86;97692.94;4472648;32;20137;-79
2022/01/06 09:41:14;;;;;;;3.45;1.40;;;;;;;9.98;45.22;97686.94;4489375;32;20156;-82
2022/01/06 09:43:43;;;;;;;7.18;1.85;;;;;;;9.13;46.49;97678.72;4473341;32;20128;-80
2022/01/06 09:46:14;;;;;;;6.70;1.50;;;;;;;9.21;47.15;97689.53;4488957;32;20089;-77
2022/01/06 09:48:42;;;;;;;3.83;1.37;;;;;;;8.64;47.78;97683.34;4487299;32;20102;-78
2022/01/06 09:51:10;;;;;;;2.53;1.33;;;;;;;8.56;48.19;97680.25;4489991;32;20751;-79
2022/01/06 09:53:37;;;;;;;3.42;1.27;;;;;;;8.81;47.55;97682.63;4489329;32;20052;-80
2022/01/06 09:56:05;;;;;;;4.53;1.60;;;;;;;8.70;48.07;97682.25;4491046;32;20094;-79
2022/01/06 09:58:32;;;;;;;5.65;1.50;;;;;;;9.30;47.09;97685.72;4478145;32;20068;-79
2022/01/06 10:01:00;;;;;;;7.75;1.52;;;;;;;8.64;46.71;97688.50;4497099;32;20069;-79
2022/01/06 10:03:56;;;;;;;4.28;1.37;;;;;;;8.77;47.45;97686.25;4482242;32;20083;-81
2022/01/06 10:06:25;;;;;;;4.90;1.50;;;;;;;8.19;48.25;97693.69;4466357;32;20289;-80
2022/01/06 10:08:56;;;;;;;3.17;1.37;;;;;;;8.24;48.77;97696.06;4489592;32;20076;-81
2022/01/06 10:11:25;;;;;;;7.50;1.75;;;;;;;8.18;49.15;97707.41;4490362;32;20088;-80
2022/01/06 10:14:00;;;;;;;4.68;1.62;;;;;;;8.40;49.30;97708.31;4489981;32;20104;-81
2022/01/06 10:16:30;;;;;;;3.28;1.42;;;;;;;8.92;47.75;97701.03;4489423;32;20159;-80
2022/01/06 10:19:05;;;;;;;8.23;1.67;;;;;;;8.33;48.86;97711.16;4492013;32;20087;-81
2022/01/06 10:21:44;;;;;;;4.45;1.73;;;;;;;8.83;47.20;97710.91;4465023;32;20782;-79
2022/01/06 10:24:16;;;;;;;6.78;1.73;;;;;;;8.92;47.82;97725.94;4477209;32;20118;-80
2022/01/06 10:27:13;;;;;;;6.60;2.00;;;;;;;9.20;47.11;97717.91;4474546;32;20088;-80
2022/01/06 10:29:44;;;;;;;6.50;1.75;;;;;;;8.46;49.13;97722.66;4465894;32;20474;-80
2022/01/06 10:32:15;;;;;;;3.65;1.67;;;;;;;8.21;49.41;97724.47;4489488;32;20152;-81
2022/01/06 10:34:47;;;;;;;5.22;1.73;;;;;;;7.71;51.88;97719.50;4490818;32;20107;-80
2022/01/06 10:37:18;;;;;;;6.40;1.98;;;;;;;8.62;49.60;97725.47;4490177;32;20539;-81
2022/01/06 10:39:47;;;;;;;6.22;1.70;;;;;;;8.64;49.24;97731.38;4490796;32;20120;-80
2022/01/06 10:42:14;;;;;;;5.87;1.60;;;;;;;7.56;52.55;97733.72;4489429;32;20512;-80
2022/01/06 10:45:03;;;;;;;5.60;1.75;;;;;;;7.86;50.18;97721.47;4494779;32;20100;-80
2022/01/06 10:47:33;;;;;;;6.30;1.85;;;;;;;7.63;52.72;97742.03;4487967;32;20516;-81
2022/01/06 10:50:19;;;;;;;5.15;1.83;;;;;;;8.88;49.83;97735.53;4492077;32;20100;-81
2022/01/06 10:52:53;;;;;;;8.10;2.05;;;;;;;8.31;50.58;97736.91;4490354;32;20160;-80
2022/01/06 10:55:25;;;;;;;7.87;2.30;;;;;;;8.67;50.37;97739.78;4490029;32;20105;-80
2022/01/06 10:58:08;;;;;;;7.62;2.10;;;;;;;8.68;49.99;97743.19;4494196;32;20143;-81
2022/01/06 11:00:40;;;;;;;8.18;2.28;;;;;;;8.81;49.66;97743.53;4493075;32;20056;-80
2022/01/06 11:03:12;;;;;;;4.62;1.87;;;;;;;8.93;49.60;97748.19;4495579;32;20069;-80
2022/01/06 11:05:52;;;;;;;7.15;2.10;;;;;;;7.98;51.73;97745.91;4491243;32;20072;-81
2022/01/06 11:08:23;;;;;;;5.70;1.92;;;;;;;8.31;51.81;97747.19;4492619;32;20152;-79
2022/01/06 11:11:13;;;;;;;8.55;1.87;;;;;;;8.42;50.88;97756.25;4495501;32;20136;-80
2022/01/06 11:13:44;;;;;;;7.55;1.80;;;;;;;8.73;50.84;97745.63;4482430;32;20113;-80
2022/01/06 11:16:16;;;;;;;6.00;2.00;;;;;;;8.35;50.59;97756.47;4496795;32;20100;-80
2022/01/06 11:18:55;;;;;;;6.03;1.65;;;;;;;8.94;48.67;97748.16;4493471;32;20219;-79
2022/01/06 11:21:47;;;;;;;5.85;1.80;;;;;;;8.49;49.92;97747.41;4479869;32;20085;-78
2022/01/06 11:24:15;;;;;;;4.05;1.50;;;;;;;8.10;50.58;97753.97;4465589;32;20397;-78
2022/01/06 11:26:56;;;;;;;8.10;2.00;;;;;;;9.10;48.55;97756.06;4491602;32;20104;-83
2022/01/06 11:29:35;;;;;;;5.72;1.60;;;;;;;9.19;48.15;97750.53;4486619;32;20084;-84
2022/01/06 11:32:05;;;;;;;6.37;2.00;;;;;;;7.84;50.91;97751.53;4486378;32;20223;-85
2022/01/06 11:34:37;;;;;;;5.70;1.65;;;;;;;8.03;49.36;97744.00;4472029;32;20167;-86
2022/01/06 11:37:13;;;;;;;5.53;1.48;;;;;;;8.79;48.73;97747.91;4487733;32;20439;-87
2022/01/06 11:39:40;;;;;;;3.95;1.70;;;;;;;9.06;47.35;97741.66;4487398;32;20429;-86
2022/01/06 11:42:17;;;;;;;4.47;1.40;;;;;;;8.45;48.84;97745.84;4488473;32;20155;-86
2022/01/06 11:44:51;;;;;;;3.87;1.30;;;;;;;9.30;47.21;97744.94;4488281;32;20111;-85
2022/01/06 11:47:37;;;;;;;5.43;1.83;;;;;;;9.27;46.74;97745.06;4488688;32;20156;-84
2022/01/06 11:50:11;;;;;;;3.95;1.30;;;;;;;8.39;48.64;97752.87;4488512;32;20083;-83
2022/01/06 11:52:58;;;;;;;4.07;1.65;;;;;;;8.60;48.91;97756.34;4488332;32;20176;-82
2022/01/06 11:55:35;;;;;;;4.80;1.30;;;;;;;9.42;46.00;97746.97;4488541;32;20110;-81
2022/01/06 11:58:17;;;;;;;2.65;1.27;;;;;;;9.11;46.76;97747.44;4490592;32;20112;-82
2022/01/06 12:01:06;;;;;;;11.57;5.18;;;;;;;9.71;46.08;97755.19;4490347;32;20163;-81